sensor_id;sensor_type;location;lat;lon;timestamp;pressure;altitude;pressure_sealevel;temperature;humidity
53340;BME280;46212;50.258;19.062;2023-02-28T00:01:06;99723.25;;;1.14;50.75
53340;BME280;46212;50.258;19.062;2023-02-28T00:03:32;99721.97;;;1.08;50.96
53340;BME280;46212;50.258;19.062;2023-02-28T00:06:07;99733.63;;;1.08;51.73
53340;BME280;46212;50.258;19.062;2023-02-28T00:08:34;99711.28;;;0.96;51.77
53340;BME280;46212;50.258;19.062;2023-02-28T00:11:05;99723.69;;;0.93;52.12
53340;BME280;46212;50.258;19.062;2023-02-28T00:13:31;99725.94;;;0.88;52.47
53340;BME280;46212;50.258;19.062;2023-02-28T00:16:08;99733.91;;;1.00;52.13
53340;BME280;46212;50.258;19.062;2023-02-28T00:18:34;99723.22;;;0.88;52.31
53340;BME280;46212;50.258;19.062;2023-02-28T00:20:59;99727.00;;;0.83;52.80
53340;BME280;46212;50.258;19.062;2023-02-28T00:23:26;99711.38;;;0.54;53.69
53340;BME280;46212;50.258;19.062;2023-02-28T00:25:52;99731.97;;;0.55;54.53
53340;BME280;46212;50.258;19.062;2023-02-28T00:28:17;99712.16;;;0.77;53.42
53340;BME280;46212;50.258;19.062;2023-02-28T00:30:43;99711.44;;;0.58;53.97
53340;BME280;46212;50.258;19.062;2023-02-28T00:33:09;99715.19;;;0.49;55.03
53340;BME280;46212;50.258;19.062;2023-02-28T00:35:35;99715.41;;;0.64;54.35
53340;BME280;46212;50.258;19.062;2023-02-28T00:38:00;99709.56;;;0.39;54.70
53340;BME280;46212;50.258;19.062;2023-02-28T00:40:26;99727.03;;;0.19;55.54
53340;BME280;46212;50.258;19.062;2023-02-28T00:42:51;99736.97;;;0.11;56.39
53340;BME280;46212;50.258;19.062;2023-02-28T00:45:17;99718.13;;;-0.20;56.84
53340;BME280;46212;50.258;19.062;2023-02-28T00:47:42;99731.97;;;-0.06;56.70
53340;BME280;46212;50.258;19.062;2023-02-28T00:50:08;99734.56;;;0.06;56.52
53340;BME280;46212;50.258;19.062;2023-02-28T00:52:34;99729.97;;;0.10;56.65
53340;BME280;46212;50.258;19.062;2023-02-28T00:54:59;99737.19;;;0.03;56.89
53340;BME280;46212;50.258;19.062;2023-02-28T00:57:25;99731.47;;;-0.12;57.32
53340;BME280;46212;50.258;19.062;2023-02-28T00:59:51;99725.31;;;0.11;56.39
53340;BME280;46212;50.258;19.062;2023-02-28T01:02:20;99738.75;;;0.23;56.19
53340;BME280;46212;50.258;19.062;2023-02-28T01:04:45;99742.81;;;0.13;57.16
53340;BME280;46212;50.258;19.062;2023-02-28T01:07:11;99725.88;;;-0.19;57.86
53340;BME280;46212;50.258;19.062;2023-02-28T01:09:36;99721.97;;;-0.02;57.33
53340;BME280;46212;50.258;19.062;2023-02-28T01:12:02;99715.00;;;0.20;56.93
53340;BME280;46212;50.258;19.062;2023-02-28T01:14:27;99727.78;;;0.38;56.57
53340;BME280;46212;50.258;19.062;2023-02-28T01:16:53;99729.09;;;0.25;57.23
53340;BME280;46212;50.258;19.062;2023-02-28T01:19:18;99721.72;;;0.26;57.08
53340;BME280;46212;50.258;19.062;2023-02-28T01:21:44;99731.53;;;0.30;57.61
53340;BME280;46212;50.258;19.062;2023-02-28T01:24:09;99722.38;;;0.19;58.74
53340;BME280;46212;50.258;19.062;2023-02-28T01:26:35;99718.66;;;0.27;59.34
53340;BME280;46212;50.258;19.062;2023-02-28T01:29:00;99721.66;;;0.22;59.73
53340;BME280;46212;50.258;19.062;2023-02-28T01:31:26;99738.00;;;0.45;60.17
53340;BME280;46212;50.258;19.062;2023-02-28T01:33:51;99725.22;;;0.26;60.96
53340;BME280;46212;50.258;19.062;2023-02-28T01:36:19;99728.19;;;0.18;61.85
53340;BME280;46212;50.258;19.062;2023-02-28T01:38:46;99725.47;;;-0.02;62.71
53340;BME280;46212;50.258;19.062;2023-02-28T01:41:31;99707.09;;;0.11;62.43
53340;BME280;46212;50.258;19.062;2023-02-28T01:43:59;99723.88;;;0.17;62.45
53340;BME280;46212;50.258;19.062;2023-02-28T01:46:25;99717.63;;;0.13;63.46
53340;BME280;46212;50.258;19.062;2023-02-28T01:54:02;99713.66;;;0.10;64.10
53340;BME280;46212;50.258;19.062;2023-02-28T01:56:30;99716.88;;;0.35;63.16
53340;BME280;46212;50.258;19.062;2023-02-28T01:58:58;99705.06;;;0.27;63.43
53340;BME280;46212;50.258;19.062;2023-02-28T02:01:25;99723.16;;;0.20;63.32
53340;BME280;46212;50.258;19.062;2023-02-28T02:03:55;99714.69;;;0.02;64.22
53340;BME280;46212;50.258;19.062;2023-02-28T02:06:27;99715.09;;;-0.15;64.78
53340;BME280;46212;50.258;19.062;2023-02-28T02:08:54;99714.31;;;-0.35;65.61
53340;BME280;46212;50.258;19.062;2023-02-28T02:11:22;99717.78;;;-0.54;66.35
53340;BME280;46212;50.258;19.062;2023-02-28T02:38:32;99707.94;;;-1.59;70.92
53340;BME280;46212;50.258;19.062;2023-02-28T02:41:19;99720.16;;;-1.65;71.35
53340;BME280;46212;50.258;19.062;2023-02-28T02:43:56;99692.97;;;-1.84;71.74
53340;BME280;46212;50.258;19.062;2023-02-28T02:46:38;99712.00;;;-1.81;71.67
53340;BME280;46212;50.258;19.062;2023-02-28T02:49:09;99705.31;;;-1.99;72.57
53340;BME280;46212;50.258;19.062;2023-02-28T02:51:37;99706.28;;;-2.07;72.71
53340;BME280;46212;50.258;19.062;2023-02-28T02:54:08;99699.16;;;-2.11;72.44
53340;BME280;46212;50.258;19.062;2023-02-28T02:56:38;99706.91;;;-1.98;72.38
53340;BME280;46212;50.258;19.062;2023-02-28T02:59:07;99704.72;;;-1.92;72.01
53340;BME280;46212;50.258;19.062;2023-02-28T03:01:36;99715.91;;;-1.94;72.18
53340;BME280;46212;50.258;19.062;2023-02-28T03:04:07;99717.63;;;-2.01;72.26
53340;BME280;46212;50.258;19.062;2023-02-28T03:06:33;99722.88;;;-1.93;71.77
53340;BME280;46212;50.258;19.062;2023-02-28T03:09:00;99721.63;;;-2.11;72.35
53340;BME280;46212;50.258;19.062;2023-02-28T03:11:26;99700.84;;;-2.35;73.11
53340;BME280;46212;50.258;19.062;2023-02-28T03:16:35;99721.13;;;-2.29;73.57
53340;BME280;46212;50.258;19.062;2023-02-28T03:21:55;99726.34;;;-2.08;72.71
53340;BME280;46212;50.258;19.062;2023-02-28T03:26:55;99720.88;;;-1.96;72.95
53340;BME280;46212;50.258;19.062;2023-02-28T03:29:34;99719.78;;;-1.79;73.23
53340;BME280;46212;50.258;19.062;2023-02-28T03:32:08;99709.25;;;-1.96;73.34
53340;BME280;46212;50.258;19.062;2023-02-28T03:34:43;99726.38;;;-1.92;73.53
53340;BME280;46212;50.258;19.062;2023-02-28T03:37:16;99719.75;;;-1.95;73.35
53340;BME280;46212;50.258;19.062;2023-02-28T03:39:47;99736.69;;;-1.98;73.29
53340;BME280;46212;50.258;19.062;2023-02-28T03:42:20;99732.38;;;-1.99;73.70
53340;BME280;46212;50.258;19.062;2023-02-28T03:45:04;99724.84;;;-2.05;73.93
53340;BME280;46212;50.258;19.062;2023-02-28T03:47:37;99733.06;;;-2.02;74.37
53340;BME280;46212;50.258;19.062;2023-02-28T03:52:49;99741.28;;;-2.26;74.66
53340;BME280;46212;50.258;19.062;2023-02-28T03:55:16;99732.78;;;-2.52;74.95
53340;BME280;46212;50.258;19.062;2023-02-28T03:58:03;99739.09;;;-2.48;74.97
53340;BME280;46212;50.258;19.062;2023-02-28T04:00:40;99743.50;;;-2.68;75.39
53340;BME280;46212;50.258;19.062;2023-02-28T04:03:08;99742.41;;;-2.67;75.98
53340;BME280;46212;50.258;19.062;2023-02-28T04:05:45;99722.03;;;-2.77;75.80
53340;BME280;46212;50.258;19.062;2023-02-28T04:08:13;99726.19;;;-2.91;76.04
53340;BME280;46212;50.258;19.062;2023-02-28T04:10:38;99750.28;;;-2.86;76.08
53340;BME280;46212;50.258;19.062;2023-02-28T04:13:04;99746.69;;;-2.90;76.50
53340;BME280;46212;50.258;19.062;2023-02-28T04:15:29;99746.91;;;-2.83;76.36
53340;BME280;46212;50.258;19.062;2023-02-28T04:17:55;99753.78;;;-2.86;75.94
53340;BME280;46212;50.258;19.062;2023-02-28T04:20:20;99752.44;;;-2.80;76.44
53340;BME280;46212;50.258;19.062;2023-02-28T04:22:46;99759.97;;;-2.85;76.64
53340;BME280;46212;50.258;19.062;2023-02-28T04:25:11;99753.88;;;-2.82;76.94
53340;BME280;46212;50.258;19.062;2023-02-28T04:27:36;99757.47;;;-2.78;76.82
53340;BME280;46212;50.258;19.062;2023-02-28T04:30:02;99746.22;;;-3.16;77.82
53340;BME280;46212;50.258;19.062;2023-02-28T04:32:28;99766.59;;;-3.19;78.56
53340;BME280;46212;50.258;19.062;2023-02-28T04:34:53;99763.66;;;-3.26;78.39
53340;BME280;46212;50.258;19.062;2023-02-28T04:37:19;99747.53;;;-3.47;79.11
53340;BME280;46212;50.258;19.062;2023-02-28T04:39:44;99771.31;;;-3.40;79.18
53340;BME280;46212;50.258;19.062;2023-02-28T04:42:10;99777.91;;;-3.50;79.30
53340;BME280;46212;50.258;19.062;2023-02-28T04:44:36;99775.41;;;-3.55;79.68
53340;BME280;46212;50.258;19.062;2023-02-28T04:47:01;99775.53;;;-3.51;79.71
53340;BME280;46212;50.258;19.062;2023-02-28T04:49:27;99765.09;;;-3.53;79.57
53340;BME280;46212;50.258;19.062;2023-02-28T04:51:53;99767.69;;;-3.44;79.62
53340;BME280;46212;50.258;19.062;2023-02-28T04:54:18;99780.34;;;-3.24;79.20
53340;BME280;46212;50.258;19.062;2023-02-28T04:56:44;99763.53;;;-3.30;78.99
53340;BME280;46212;50.258;19.062;2023-02-28T04:59:09;99777.53;;;-3.15;78.69
53340;BME280;46212;50.258;19.062;2023-02-28T05:01:35;99770.22;;;-3.27;78.69
53340;BME280;46212;50.258;19.062;2023-02-28T05:04:03;99758.47;;;-3.43;78.42
53340;BME280;46212;50.258;19.062;2023-02-28T05:06:30;99778.03;;;-3.46;79.30
53340;BME280;46212;50.258;19.062;2023-02-28T05:08:56;99778.91;;;-3.54;79.62
53340;BME280;46212;50.258;19.062;2023-02-28T05:11:23;99776.84;;;-3.69;80.43
53340;BME280;46212;50.258;19.062;2023-02-28T05:13:50;99774.91;;;-3.81;80.91
53340;BME280;46212;50.258;19.062;2023-02-28T05:16:16;99775.56;;;-3.84;80.82
53340;BME280;46212;50.258;19.062;2023-02-28T05:18:42;99780.44;;;-3.78;80.67
53340;BME280;46212;50.258;19.062;2023-02-28T05:21:33;99777.28;;;-3.67;80.74
53340;BME280;46212;50.258;19.062;2023-02-28T05:24:04;99769.91;;;-3.58;80.89
53340;BME280;46212;50.258;19.062;2023-02-28T05:26:33;99779.38;;;-3.52;80.87
53340;BME280;46212;50.258;19.062;2023-02-28T05:28:59;99774.38;;;-3.74;80.78
53340;BME280;46212;50.258;19.062;2023-02-28T05:31:25;99790.16;;;-3.85;81.68
53340;BME280;46212;50.258;19.062;2023-02-28T05:33:50;99771.16;;;-3.89;81.18
53340;BME280;46212;50.258;19.062;2023-02-28T05:36:16;99792.78;;;-3.77;81.19
53340;BME280;46212;50.258;19.062;2023-02-28T05:38:41;99794.50;;;-3.93;81.56
53340;BME280;46212;50.258;19.062;2023-02-28T05:41:08;99808.13;;;-3.89;81.73
53340;BME280;46212;50.258;19.062;2023-02-28T05:43:35;99788.22;;;-3.97;81.50
53340;BME280;46212;50.258;19.062;2023-02-28T05:46:05;99802.56;;;-3.84;81.56
53340;BME280;46212;50.258;19.062;2023-02-28T05:48:31;99802.78;;;-3.77;81.27
53340;BME280;46212;50.258;19.062;2023-02-28T05:50:57;99791.63;;;-3.88;80.99
53340;BME280;46212;50.258;19.062;2023-02-28T05:53:23;99789.28;;;-3.77;81.00
53340;BME280;46212;50.258;19.062;2023-02-28T05:55:48;99796.97;;;-3.67;80.99
53340;BME280;46212;50.258;19.062;2023-02-28T05:58:14;99798.88;;;-3.67;80.56
53340;BME280;46212;50.258;19.062;2023-02-28T06:00:39;99820.09;;;-3.45;80.63
53340;BME280;46212;50.258;19.062;2023-02-28T06:03:04;99814.16;;;-3.39;80.24
53340;BME280;46212;50.258;19.062;2023-02-28T06:05:30;99821.72;;;-3.32;80.10
53340;BME280;46212;50.258;19.062;2023-02-28T06:07:55;99820.44;;;-3.14;80.26
53340;BME280;46212;50.258;19.062;2023-02-28T06:10:21;99823.81;;;-3.05;80.20
53340;BME280;46212;50.258;19.062;2023-02-28T06:12:46;99820.88;;;-3.00;80.08
53340;BME280;46212;50.258;19.062;2023-02-28T06:15:13;99817.19;;;-2.83;79.83
53340;BME280;46212;50.258;19.062;2023-02-28T06:17:40;99830.72;;;-2.83;79.56
53340;BME280;46212;50.258;19.062;2023-02-28T06:20:07;99833.28;;;-2.87;79.39
53340;BME280;46212;50.258;19.062;2023-02-28T06:22:32;99828.25;;;-2.76;79.21
53340;BME280;46212;50.258;19.062;2023-02-28T06:24:58;99835.69;;;-2.73;79.08
53340;BME280;46212;50.258;19.062;2023-02-28T06:27:23;99834.63;;;-2.93;79.38
53340;BME280;46212;50.258;19.062;2023-02-28T06:29:49;99837.78;;;-3.03;79.96
53340;BME280;46212;50.258;19.062;2023-02-28T06:32:18;99832.00;;;-3.13;80.43
53340;BME280;46212;50.258;19.062;2023-02-28T06:34:43;99842.41;;;-2.91;80.63
53340;BME280;46212;50.258;19.062;2023-02-28T06:37:09;99834.53;;;-2.72;80.33
53340;BME280;46212;50.258;19.062;2023-02-28T06:39:34;99838.38;;;-2.61;79.31
53340;BME280;46212;50.258;19.062;2023-02-28T06:42:00;99848.28;;;-2.65;79.58
53340;BME280;46212;50.258;19.062;2023-02-28T06:44:25;99849.19;;;-2.37;79.21
53340;BME280;46212;50.258;19.062;2023-02-28T06:46:50;99842.97;;;-2.13;78.79
53340;BME280;46212;50.258;19.062;2023-02-28T06:49:16;99837.19;;;-2.11;78.66
53340;BME280;46212;50.258;19.062;2023-02-28T06:51:44;99827.00;;;-1.63;76.58
53340;BME280;46212;50.258;19.062;2023-02-28T06:54:12;99828.84;;;-1.23;75.36
53340;BME280;46212;50.258;19.062;2023-02-28T06:56:38;99827.88;;;-1.31;74.59
53340;BME280;46212;50.258;19.062;2023-02-28T06:59:04;99850.75;;;-0.85;74.07
53340;BME280;46212;50.258;19.062;2023-02-28T07:01:30;99833.63;;;-0.73;72.46
53340;BME280;46212;50.258;19.062;2023-02-28T07:03:57;99845.84;;;-0.48;71.80
53340;BME280;46212;50.258;19.062;2023-02-28T07:06:23;99856.00;;;-0.61;72.12
53340;BME280;46212;50.258;19.062;2023-02-28T07:08:50;99860.81;;;-0.54;71.97
53340;BME280;46212;50.258;19.062;2023-02-28T07:11:15;99858.63;;;-0.64;72.25
53340;BME280;46212;50.258;19.062;2023-02-28T07:13:41;99866.84;;;-0.29;70.60
53340;BME280;46212;50.258;19.062;2023-02-28T07:16:08;99865.31;;;-0.11;70.18
53340;BME280;46212;50.258;19.062;2023-02-28T07:18:35;99868.69;;;0.02;69.51
53340;BME280;46212;50.258;19.062;2023-02-28T07:21:05;99861.16;;;-0.40;70.53
53340;BME280;46212;50.258;19.062;2023-02-28T07:23:32;99866.56;;;-0.24;70.43
53340;BME280;46212;50.258;19.062;2023-02-28T07:25:57;99866.56;;;0.11;68.46
53340;BME280;46212;50.258;19.062;2023-02-28T07:28:23;99865.56;;;0.19;67.69
53340;BME280;46212;50.258;19.062;2023-02-28T07:30:49;99859.13;;;0.08;67.24
53340;BME280;46212;50.258;19.062;2023-02-28T07:33:14;99858.91;;;0.35;66.55
53340;BME280;46212;50.258;19.062;2023-02-28T07:35:40;99863.91;;;0.14;66.98
53340;BME280;46212;50.258;19.062;2023-02-28T07:38:06;99863.84;;;0.11;66.92
53340;BME280;46212;50.258;19.062;2023-02-28T07:40:33;99858.28;;;0.23;66.41
53340;BME280;46212;50.258;19.062;2023-02-28T07:42:59;99863.09;;;-0.06;67.34
53340;BME280;46212;50.258;19.062;2023-02-28T07:45:26;99844.28;;;-0.14;67.32
53340;BME280;46212;50.258;19.062;2023-02-28T07:47:51;99867.63;;;0.06;67.89
53340;BME280;46212;50.258;19.062;2023-02-28T07:50:16;99861.63;;;0.54;63.88
53340;BME280;46212;50.258;19.062;2023-02-28T07:52:42;99847.41;;;0.61;62.59
53340;BME280;46212;50.258;19.062;2023-02-28T07:55:09;99860.72;;;0.47;63.04
53340;BME280;46212;50.258;19.062;2023-02-28T07:57:34;99852.84;;;0.23;63.39
53340;BME280;46212;50.258;19.062;2023-02-28T08:00:00;99856.44;;;0.46;63.05
53340;BME280;46212;50.258;19.062;2023-02-28T08:02:25;99853.41;;;0.51;62.63
53340;BME280;46212;50.258;19.062;2023-02-28T08:04:51;99865.53;;;0.53;62.79
53340;BME280;46212;50.258;19.062;2023-02-28T08:07:17;99859.47;;;0.83;60.25
53340;BME280;46212;50.258;19.062;2023-02-28T08:09:43;99861.53;;;0.89;59.83
53340;BME280;46212;50.258;19.062;2023-02-28T08:12:10;99851.25;;;0.03;62.75
53340;BME280;46212;50.258;19.062;2023-02-28T08:14:36;99866.22;;;0.12;63.23
53340;BME280;46212;50.258;19.062;2023-02-28T08:17:02;99859.22;;;0.49;61.32
53340;BME280;46212;50.258;19.062;2023-02-28T08:19:28;99857.34;;;0.92;60.18
53340;BME280;46212;50.258;19.062;2023-02-28T08:21:54;99867.19;;;1.23;58.35
53340;BME280;46212;50.258;19.062;2023-02-28T08:24:20;99861.50;;;1.31;57.60
53340;BME280;46212;50.258;19.062;2023-02-28T08:26:45;99856.50;;;1.11;58.46
53340;BME280;46212;50.258;19.062;2023-02-28T08:29:11;99868.34;;;1.22;58.51
53340;BME280;46212;50.258;19.062;2023-02-28T08:31:36;99862.47;;;1.20;57.52
53340;BME280;46212;50.258;19.062;2023-02-28T08:34:11;99862.09;;;0.98;57.86
53340;BME280;46212;50.258;19.062;2023-02-28T08:36:37;99834.59;;;1.49;55.60
53340;BME280;46212;50.258;19.062;2023-02-28T08:39:03;99869.44;;;1.17;57.74
53340;BME280;46212;50.258;19.062;2023-02-28T08:41:29;99874.56;;;1.45;57.12
53340;BME280;46212;50.258;19.062;2023-02-28T08:43:54;99872.03;;;1.82;56.47
53340;BME280;46212;50.258;19.062;2023-02-28T08:46:20;99875.38;;;1.98;55.86
53340;BME280;46212;50.258;19.062;2023-02-28T08:48:46;99855.00;;;2.14;53.74
53340;BME280;46212;50.258;19.062;2023-02-28T08:51:16;99851.75;;;2.35;53.44
53340;BME280;46212;50.258;19.062;2023-02-28T08:53:44;99867.75;;;2.37;53.38
53340;BME280;46212;50.258;19.062;2023-02-28T08:56:12;99876.28;;;1.79;55.55
53340;BME280;46212;50.258;19.062;2023-02-28T08:58:38;99852.28;;;2.48;53.20
53340;BME280;46212;50.258;19.062;2023-02-28T09:01:18;99852.44;;;2.58;53.03
53340;BME280;46212;50.258;19.062;2023-02-28T09:03:44;99866.78;;;2.85;52.21
53340;BME280;46212;50.258;19.062;2023-02-28T09:06:11;99862.06;;;2.82;53.26
53340;BME280;46212;50.258;19.062;2023-02-28T09:08:36;99858.56;;;2.82;52.48
53340;BME280;46212;50.258;19.062;2023-02-28T09:11:02;99855.03;;;2.81;52.95
53340;BME280;46212;50.258;19.062;2023-02-28T09:13:28;99865.94;;;2.81;53.60
53340;BME280;46212;50.258;19.062;2023-02-28T09:15:56;99864.28;;;3.10;52.12
53340;BME280;46212;50.258;19.062;2023-02-28T09:18:22;99848.47;;;3.26;49.63
53340;BME280;46212;50.258;19.062;2023-02-28T09:20:47;99875.38;;;3.28;48.92
53340;BME280;46212;50.258;19.062;2023-02-28T09:23:13;99868.00;;;3.32;48.90
53340;BME280;46212;50.258;19.062;2023-02-28T09:25:46;99860.53;;;2.85;50.48
53340;BME280;46212;50.258;19.062;2023-02-28T09:28:11;99867.63;;;3.33;48.29
53340;BME280;46212;50.258;19.062;2023-02-28T09:30:37;99867.72;;;3.44;47.97
53340;BME280;46212;50.258;19.062;2023-02-28T09:33:02;99866.59;;;3.48;47.90
53340;BME280;46212;50.258;19.062;2023-02-28T09:35:28;99869.56;;;3.29;48.28
53340;BME280;46212;50.258;19.062;2023-02-28T09:37:56;99862.59;;;3.35;48.16
53340;BME280;46212;50.258;19.062;2023-02-28T09:40:24;99867.91;;;3.21;48.74
53340;BME280;46212;50.258;19.062;2023-02-28T09:42:52;99874.22;;;3.29;48.04
53340;BME280;46212;50.258;19.062;2023-02-28T09:45:31;99871.97;;;3.38;48.53
53340;BME280;46212;50.258;19.062;2023-02-28T09:48:10;99878.31;;;3.49;47.62
53340;BME280;46212;50.258;19.062;2023-02-28T09:50:45;99876.22;;;2.95;48.94
53340;BME280;46212;50.258;19.062;2023-02-28T09:53:36;99876.94;;;2.88;49.54
53340;BME280;46212;50.258;19.062;2023-02-28T09:56:08;99870.56;;;3.14;48.86
53340;BME280;46212;50.258;19.062;2023-02-28T10:01:21;99882.31;;;3.62;47.41
53340;BME280;46212;50.258;19.062;2023-02-28T10:04:49;99867.03;;;3.54;47.69
53340;BME280;46212;50.258;19.062;2023-02-28T10:06:50;99866.84;;;3.80;46.12
53340;BME280;46212;50.258;19.062;2023-02-28T10:09:21;99881.31;;;3.84;46.74
53340;BME280;46212;50.258;19.062;2023-02-28T10:11:51;99878.75;;;4.12;46.45
53340;BME280;46212;50.258;19.062;2023-02-28T10:14:28;99880.84;;;4.37;46.20
53340;BME280;46212;50.258;19.062;2023-02-28T10:16:58;99864.09;;;4.45;46.00
53340;BME280;46212;50.258;19.062;2023-02-28T10:19:30;99871.16;;;4.57;47.42
53340;BME280;46212;50.258;19.062;2023-02-28T10:22:06;99864.25;;;4.88;44.82
53340;BME280;46212;50.258;19.062;2023-02-28T10:24:39;99863.53;;;5.19;45.19
53340;BME280;46212;50.258;19.062;2023-02-28T10:29:47;99864.34;;;5.51;45.98
53340;BME280;46212;50.258;19.062;2023-02-28T10:32:16;99857.28;;;5.75;44.12
53340;BME280;46212;50.258;19.062;2023-02-28T10:34:42;99856.50;;;5.71;43.60
53340;BME280;46212;50.258;19.062;2023-02-28T10:37:09;99854.16;;;5.69;43.74
53340;BME280;46212;50.258;19.062;2023-02-28T10:39:44;99849.47;;;5.56;44.09
53340;BME280;46212;50.258;19.062;2023-02-28T10:42:26;99848.28;;;5.46;45.96
53340;BME280;46212;50.258;19.062;2023-02-28T10:45:16;99846.31;;;5.11;46.09
53340;BME280;46212;50.258;19.062;2023-02-28T11:00:57;99824.41;;;5.01;45.22
53340;BME280;46212;50.258;19.062;2023-02-28T11:03:29;99830.69;;;5.19;44.81
53340;BME280;46212;50.258;19.062;2023-02-28T11:05:56;99836.53;;;5.21;45.16
53340;BME280;46212;50.258;19.062;2023-02-28T11:08:21;99819.72;;;5.19;44.96
53340;BME280;46212;50.258;19.062;2023-02-28T11:10:56;99833.81;;;5.35;43.78
53340;BME280;46212;50.258;19.062;2023-02-28T11:13:28;99813.88;;;5.42;44.41
53340;BME280;46212;50.258;19.062;2023-02-28T11:16:00;99831.47;;;5.65;44.25
53340;BME280;46212;50.258;19.062;2023-02-28T11:18:49;99820.88;;;5.78;43.47
53340;BME280;46212;50.258;19.062;2023-02-28T11:21:19;99821.28;;;5.80;43.91
53340;BME280;46212;50.258;19.062;2023-02-28T11:23:45;99801.69;;;5.74;43.71
53340;BME280;46212;50.258;19.062;2023-02-28T11:26:10;99804.06;;;5.86;43.36
53340;BME280;46212;50.258;19.062;2023-02-28T11:28:39;99789.53;;;5.97;44.47
53340;BME280;46212;50.258;19.062;2023-02-28T11:33:44;99796.16;;;6.06;43.06
53340;BME280;46212;50.258;19.062;2023-02-28T11:36:31;99801.59;;;6.27;42.38
53340;BME280;46212;50.258;19.062;2023-02-28T11:39:07;99785.84;;;6.46;43.16
53340;BME280;46212;50.258;19.062;2023-02-28T11:55:20;99781.34;;;6.73;40.66
53340;BME280;46212;50.258;19.062;2023-02-28T11:57:52;99774.19;;;6.93;40.99
53340;BME280;46212;50.258;19.062;2023-02-28T12:00:53;99781.97;;;7.02;39.89
53340;BME280;46212;50.258;19.062;2023-02-28T12:22:28;99764.78;;;7.83;38.73
53340;BME280;46212;50.258;19.062;2023-02-28T12:27:47;99768.97;;;8.28;39.78
53340;BME280;46212;50.258;19.062;2023-02-28T12:30:21;99766.22;;;8.25;37.56
53340;BME280;46212;50.258;19.062;2023-02-28T12:32:53;99769.75;;;8.29;37.27
53340;BME280;46212;50.258;19.062;2023-02-28T12:35:33;99756.31;;;8.00;37.72
53340;BME280;46212;50.258;19.062;2023-02-28T12:38:08;99744.38;;;8.44;38.45
53340;BME280;46212;50.258;19.062;2023-02-28T12:40:50;99752.69;;;8.71;37.32
53340;BME280;46212;50.258;19.062;2023-02-28T12:43:18;99747.13;;;8.75;36.81
53340;BME280;46212;50.258;19.062;2023-02-28T12:48:15;99743.41;;;8.85;36.72
53340;BME280;46212;50.258;19.062;2023-02-28T12:50:45;99736.91;;;8.98;35.53
53340;BME280;46212;50.258;19.062;2023-02-28T12:56:16;99731.91;;;9.17;36.49
53340;BME280;46212;50.258;19.062;2023-02-28T12:58:51;99733.63;;;9.30;37.05
53340;BME280;46212;50.258;19.062;2023-02-28T13:10:59;99744.34;;;9.71;35.00
53340;BME280;46212;50.258;19.062;2023-02-28T13:13:27;99723.53;;;9.86;34.75
53340;BME280;46212;50.258;19.062;2023-02-28T13:16:09;99734.97;;;10.28;35.25
53340;BME280;46212;50.258;19.062;2023-02-28T13:21:09;99729.38;;;10.67;33.90
53340;BME280;46212;50.258;19.062;2023-02-28T13:26:12;99716.09;;;11.27;31.12
53340;BME280;46212;50.258;19.062;2023-02-28T13:34:27;99729.00;;;12.99;29.64
53340;BME280;46212;50.258;19.062;2023-02-28T13:39:50;99721.00;;;16.72;25.56
53340;BME280;46212;50.258;19.062;2023-02-28T14:06:52;99712.03;;;24.76;15.97
53340;BME280;46212;50.258;19.062;2023-02-28T14:09:25;99710.22;;;25.33;15.63
53340;BME280;46212;50.258;19.062;2023-02-28T14:11:52;99709.25;;;25.25;15.40
53340;BME280;46212;50.258;19.062;2023-02-28T14:17:07;99707.94;;;24.42;16.09
53340;BME280;46212;50.258;19.062;2023-02-28T14:19:36;99703.69;;;24.24;16.05
53340;BME280;46212;50.258;19.062;2023-02-28T14:35:54;99702.50;;;23.51;16.29
53340;BME280;46212;50.258;19.062;2023-02-28T14:38:27;99691.09;;;23.05;16.81
53340;BME280;46212;50.258;19.062;2023-02-28T14:40:55;99668.03;;;22.90;16.74
53340;BME280;46212;50.258;19.062;2023-02-28T14:43:24;99681.63;;;22.97;16.58
53340;BME280;46212;50.258;19.062;2023-02-28T14:46:00;99690.28;;;23.15;16.65
53340;BME280;46212;50.258;19.062;2023-02-28T14:48:27;99688.19;;;23.33;16.48
53340;BME280;46212;50.258;19.062;2023-02-28T14:50:56;99685.16;;;23.19;16.37
53340;BME280;46212;50.258;19.062;2023-02-28T14:53:25;99690.69;;;23.58;16.67
53340;BME280;46212;50.258;19.062;2023-02-28T14:55:51;99684.22;;;23.69;15.80
53340;BME280;46212;50.258;19.062;2023-02-28T14:58:29;99685.78;;;21.11;17.85
53340;BME280;46212;50.258;19.062;2023-02-28T15:00:58;99691.09;;;22.77;16.79
53340;BME280;46212;50.258;19.062;2023-02-28T15:03:35;99678.28;;;22.04;16.93
53340;BME280;46212;50.258;19.062;2023-02-28T15:06:04;99680.09;;;22.51;16.57
53340;BME280;46212;50.258;19.062;2023-02-28T15:08:30;99688.53;;;22.35;17.04
53340;BME280;46212;50.258;19.062;2023-02-28T15:11:19;99692.44;;;21.67;17.34
53340;BME280;46212;50.258;19.062;2023-02-28T15:13:52;99677.00;;;19.84;18.76
53340;BME280;46212;50.258;19.062;2023-02-28T15:16:23;99688.78;;;19.27;19.45
53340;BME280;46212;50.258;19.062;2023-02-28T15:19:02;99682.91;;;17.26;21.04
53340;BME280;46212;50.258;19.062;2023-02-28T15:21:33;99691.47;;;15.69;23.13
53340;BME280;46212;50.258;19.062;2023-02-28T15:26:32;99690.47;;;14.78;25.07
53340;BME280;46212;50.258;19.062;2023-02-28T15:29:07;99688.28;;;15.22;24.00
53340;BME280;46212;50.258;19.062;2023-02-28T15:31:43;99679.69;;;15.83;23.65
53340;BME280;46212;50.258;19.062;2023-02-28T15:34:18;99690.34;;;16.03;23.46
53340;BME280;46212;50.258;19.062;2023-02-28T15:36:43;99688.19;;;15.62;23.57
53340;BME280;46212;50.258;19.062;2023-02-28T15:39:24;99683.31;;;15.08;24.38
53340;BME280;46212;50.258;19.062;2023-02-28T15:41:50;99692.22;;;14.01;25.12
53340;BME280;46212;50.258;19.062;2023-02-28T15:44:29;99691.97;;;12.80;26.93
53340;BME280;46212;50.258;19.062;2023-02-28T15:49:30;99679.91;;;11.21;29.51
53340;BME280;46212;50.258;19.062;2023-02-28T15:51:59;99694.44;;;10.93;30.28
53340;BME280;46212;50.258;19.062;2023-02-28T15:54:33;99693.56;;;11.28;29.87
53340;BME280;46212;50.258;19.062;2023-02-28T15:57:07;99679.75;;;10.80;30.21